Terminal Aerodrome Forecast
Issued by NWS

Home | Current Version | Previous Version | Text Only | Print | Product List | Glossary On
Versions: 1 2 3 4 5 6 7 8 9 10 11 12 13 14 15 16
000
FTAK31 PANC 012331
TAFACD
TAF
PACD 012331Z 0200/0224 29015KT P6SM VCSH OVC020
      TEMPO 0200/0204 BKN015
     FM020600 27008KT P6SM BKN025
     FM021800 14011KT P6SM SCT030 BKN060=

USA.gov is the U.S. government's official web portal to all federal, state and local government web resources and services.